sensor_id;sensor_type;location;lat;lon;timestamp;P1;durP1;ratioP1;P2;durP2;ratioP2
35877;SDS011;21982;49.804;24.072;2024-02-28T00:02:20;20.88;;;8.73;;
35877;SDS011;21982;49.804;24.072;2024-02-28T00:04:46;21.83;;;10.30;;
35877;SDS011;21982;49.804;24.072;2024-02-28T00:07:12;22.00;;;10.63;;
35877;SDS011;21982;49.804;24.072;2024-02-28T00:09:37;22.92;;;8.93;;
35877;SDS011;21982;49.804;24.072;2024-02-28T00:12:03;28.90;;;12.18;;
35877;SDS011;21982;49.804;24.072;2024-02-28T00:14:28;21.90;;;10.15;;
35877;SDS011;21982;49.804;24.072;2024-02-28T00:16:54;20.77;;;10.45;;
35877;SDS011;21982;49.804;24.072;2024-02-28T00:19:20;18.08;;;10.00;;
35877;SDS011;21982;49.804;24.072;2024-02-28T00:21:45;18.50;;;9.77;;
35877;SDS011;21982;49.804;24.072;2024-02-28T00:24:12;16.35;;;10.07;;
35877;SDS011;21982;49.804;24.072;2024-02-28T00:26:41;22.25;;;9.88;;
35877;SDS011;21982;49.804;24.072;2024-02-28T00:29:07;20.38;;;9.27;;
35877;SDS011;21982;49.804;24.072;2024-02-28T00:31:34;19.77;;;10.30;;
35877;SDS011;21982;49.804;24.072;2024-02-28T00:34:00;20.42;;;10.27;;
35877;SDS011;21982;49.804;24.072;2024-02-28T00:36:25;21.50;;;11.32;;
35877;SDS011;21982;49.804;24.072;2024-02-28T00:38:51;25.85;;;10.77;;
35877;SDS011;21982;49.804;24.072;2024-02-28T00:41:17;19.25;;;11.25;;
35877;SDS011;21982;49.804;24.072;2024-02-28T00:43:43;23.77;;;9.93;;
35877;SDS011;21982;49.804;24.072;2024-02-28T00:46:08;18.25;;;10.43;;
35877;SDS011;21982;49.804;24.072;2024-02-28T00:48:37;17.15;;;9.30;;
35877;SDS011;21982;49.804;24.072;2024-02-28T00:51:04;16.90;;;9.95;;
35877;SDS011;21982;49.804;24.072;2024-02-28T00:53:30;23.65;;;9.82;;
35877;SDS011;21982;49.804;24.072;2024-02-28T00:55:56;18.25;;;8.95;;
35877;SDS011;21982;49.804;24.072;2024-02-28T00:58:22;19.35;;;9.77;;
35877;SDS011;21982;49.804;24.072;2024-02-28T01:00:48;18.92;;;9.75;;
35877;SDS011;21982;49.804;24.072;2024-02-28T01:03:14;19.58;;;8.80;;
35877;SDS011;21982;49.804;24.072;2024-02-28T01:05:41;20.20;;;9.90;;
35877;SDS011;21982;49.804;24.072;2024-02-28T01:08:07;16.02;;;9.15;;
35877;SDS011;21982;49.804;24.072;2024-02-28T01:10:35;18.23;;;8.25;;
35877;SDS011;21982;49.804;24.072;2024-02-28T01:13:04;19.70;;;9.43;;
35877;SDS011;21982;49.804;24.072;2024-02-28T01:15:30;15.95;;;8.88;;
35877;SDS011;21982;49.804;24.072;2024-02-28T01:17:55;18.27;;;9.02;;
35877;SDS011;21982;49.804;24.072;2024-02-28T01:20:20;15.43;;;8.02;;
35877;SDS011;21982;49.804;24.072;2024-02-28T01:22:46;15.38;;;8.70;;
35877;SDS011;21982;49.804;24.072;2024-02-28T01:25:12;17.30;;;8.82;;
35877;SDS011;21982;49.804;24.072;2024-02-28T01:27:38;20.83;;;9.48;;
35877;SDS011;21982;49.804;24.072;2024-02-28T01:30:03;17.75;;;7.70;;
35877;SDS011;21982;49.804;24.072;2024-02-28T01:32:29;16.90;;;8.88;;
35877;SDS011;21982;49.804;24.072;2024-02-28T01:34:55;22.25;;;10.15;;
35877;SDS011;21982;49.804;24.072;2024-02-28T01:37:20;21.65;;;9.70;;
35877;SDS011;21982;49.804;24.072;2024-02-28T01:39:46;21.85;;;9.63;;
35877;SDS011;21982;49.804;24.072;2024-02-28T01:42:11;21.10;;;9.80;;
35877;SDS011;21982;49.804;24.072;2024-02-28T01:44:38;23.00;;;10.55;;
35877;SDS011;21982;49.804;24.072;2024-02-28T01:47:09;22.15;;;10.27;;
35877;SDS011;21982;49.804;24.072;2024-02-28T01:49:35;19.15;;;9.07;;
35877;SDS011;21982;49.804;24.072;2024-02-28T01:52:00;20.92;;;11.93;;
35877;SDS011;21982;49.804;24.072;2024-02-28T01:54:27;45.30;;;11.43;;
35877;SDS011;21982;49.804;24.072;2024-02-28T01:56:55;22.45;;;11.55;;
35877;SDS011;21982;49.804;24.072;2024-02-28T01:59:20;19.35;;;11.00;;
35877;SDS011;21982;49.804;24.072;2024-02-28T02:01:49;20.73;;;10.15;;
35877;SDS011;21982;49.804;24.072;2024-02-28T02:04:15;17.65;;;9.73;;
35877;SDS011;21982;49.804;24.072;2024-02-28T02:06:41;17.23;;;9.35;;
35877;SDS011;21982;49.804;24.072;2024-02-28T02:09:09;18.60;;;9.10;;
35877;SDS011;21982;49.804;24.072;2024-02-28T02:11:36;19.60;;;10.32;;
35877;SDS011;21982;49.804;24.072;2024-02-28T02:14:05;22.92;;;10.57;;
35877;SDS011;21982;49.804;24.072;2024-02-28T02:16:30;25.35;;;10.88;;
35877;SDS011;21982;49.804;24.072;2024-02-28T02:18:55;19.42;;;9.48;;
35877;SDS011;21982;49.804;24.072;2024-02-28T02:21:31;17.77;;;9.65;;
35877;SDS011;21982;49.804;24.072;2024-02-28T02:24:02;20.48;;;9.95;;
35877;SDS011;21982;49.804;24.072;2024-02-28T02:26:28;19.90;;;9.75;;
35877;SDS011;21982;49.804;24.072;2024-02-28T02:28:53;23.90;;;10.70;;
35877;SDS011;21982;49.804;24.072;2024-02-28T02:31:19;22.52;;;10.57;;
35877;SDS011;21982;49.804;24.072;2024-02-28T02:33:44;21.63;;;12.18;;
35877;SDS011;21982;49.804;24.072;2024-02-28T02:36:10;19.42;;;11.13;;
35877;SDS011;21982;49.804;24.072;2024-02-28T02:38:35;18.25;;;10.32;;
35877;SDS011;21982;49.804;24.072;2024-02-28T02:41:00;20.42;;;10.65;;
35877;SDS011;21982;49.804;24.072;2024-02-28T02:43:26;20.45;;;10.30;;
35877;SDS011;21982;49.804;24.072;2024-02-28T02:45:51;21.05;;;9.85;;
35877;SDS011;21982;49.804;24.072;2024-02-28T02:48:17;23.23;;;11.60;;
35877;SDS011;21982;49.804;24.072;2024-02-28T02:50:42;20.40;;;10.30;;
35877;SDS011;21982;49.804;24.072;2024-02-28T02:53:09;19.50;;;10.82;;
35877;SDS011;21982;49.804;24.072;2024-02-28T02:55:34;22.42;;;10.95;;
35877;SDS011;21982;49.804;24.072;2024-02-28T02:58:00;21.25;;;10.15;;
35877;SDS011;21982;49.804;24.072;2024-02-28T03:00:25;18.60;;;9.27;;
35877;SDS011;21982;49.804;24.072;2024-02-28T03:02:51;22.33;;;10.15;;
35877;SDS011;21982;49.804;24.072;2024-02-28T03:05:16;18.15;;;10.38;;
35877;SDS011;21982;49.804;24.072;2024-02-28T03:07:42;20.25;;;10.15;;
35877;SDS011;21982;49.804;24.072;2024-02-28T03:10:07;25.63;;;11.65;;
35877;SDS011;21982;49.804;24.072;2024-02-28T03:12:34;20.10;;;10.95;;
35877;SDS011;21982;49.804;24.072;2024-02-28T03:15:00;22.23;;;12.05;;
35877;SDS011;21982;49.804;24.072;2024-02-28T03:17:25;19.35;;;10.55;;
35877;SDS011;21982;49.804;24.072;2024-02-28T03:19:51;25.45;;;13.38;;
35877;SDS011;21982;49.804;24.072;2024-02-28T03:22:16;22.27;;;10.70;;
35877;SDS011;21982;49.804;24.072;2024-02-28T03:24:42;26.30;;;10.63;;
35877;SDS011;21982;49.804;24.072;2024-02-28T03:27:07;22.65;;;11.07;;
35877;SDS011;21982;49.804;24.072;2024-02-28T03:29:33;19.17;;;11.25;;
35877;SDS011;21982;49.804;24.072;2024-02-28T03:31:59;21.35;;;10.75;;
35877;SDS011;21982;49.804;24.072;2024-02-28T03:34:24;25.45;;;11.55;;
35877;SDS011;21982;49.804;24.072;2024-02-28T03:36:50;20.80;;;10.77;;
35877;SDS011;21982;49.804;24.072;2024-02-28T03:39:16;19.88;;;9.23;;
35877;SDS011;21982;49.804;24.072;2024-02-28T03:41:42;23.70;;;11.63;;
35877;SDS011;21982;49.804;24.072;2024-02-28T03:44:09;21.30;;;10.15;;
35877;SDS011;21982;49.804;24.072;2024-02-28T03:46:34;25.98;;;11.30;;
35877;SDS011;21982;49.804;24.072;2024-02-28T03:48:59;25.35;;;11.55;;
35877;SDS011;21982;49.804;24.072;2024-02-28T03:51:25;19.25;;;10.32;;
35877;SDS011;21982;49.804;24.072;2024-02-28T03:53:50;23.48;;;12.02;;
35877;SDS011;21982;49.804;24.072;2024-02-28T03:56:22;24.92;;;10.73;;
35877;SDS011;21982;49.804;24.072;2024-02-28T03:58:49;26.67;;;11.23;;
35877;SDS011;21982;49.804;24.072;2024-02-28T04:01:15;20.13;;;10.77;;
35877;SDS011;21982;49.804;24.072;2024-02-28T04:03:41;22.35;;;10.65;;
35877;SDS011;21982;49.804;24.072;2024-02-28T04:06:07;23.48;;;10.80;;
35877;SDS011;21982;49.804;24.072;2024-02-28T04:08:32;20.27;;;11.15;;
35877;SDS011;21982;49.804;24.072;2024-02-28T04:10:57;27.38;;;11.80;;
35877;SDS011;21982;49.804;24.072;2024-02-28T04:13:23;22.05;;;9.95;;
35877;SDS011;21982;49.804;24.072;2024-02-28T04:15:48;20.25;;;11.88;;
35877;SDS011;21982;49.804;24.072;2024-02-28T04:18:14;18.67;;;10.15;;
35877;SDS011;21982;49.804;24.072;2024-02-28T04:20:39;21.33;;;10.75;;
35877;SDS011;21982;49.804;24.072;2024-02-28T04:23:04;23.30;;;11.43;;
35877;SDS011;21982;49.804;24.072;2024-02-28T04:25:30;18.88;;;9.38;;
35877;SDS011;21982;49.804;24.072;2024-02-28T04:27:57;22.70;;;12.27;;
35877;SDS011;21982;49.804;24.072;2024-02-28T04:30:22;21.50;;;10.82;;
35877;SDS011;21982;49.804;24.072;2024-02-28T04:32:48;21.40;;;11.38;;
35877;SDS011;21982;49.804;24.072;2024-02-28T04:35:13;19.25;;;10.80;;
35877;SDS011;21982;49.804;24.072;2024-02-28T04:37:43;22.52;;;10.70;;
35877;SDS011;21982;49.804;24.072;2024-02-28T04:40:09;23.95;;;10.95;;
35877;SDS011;21982;49.804;24.072;2024-02-28T04:42:35;24.08;;;11.15;;
35877;SDS011;21982;49.804;24.072;2024-02-28T04:45:00;21.85;;;10.48;;
35877;SDS011;21982;49.804;24.072;2024-02-28T04:47:26;25.55;;;12.38;;
35877;SDS011;21982;49.804;24.072;2024-02-28T04:49:51;19.23;;;9.60;;
35877;SDS011;21982;49.804;24.072;2024-02-28T04:52:18;21.08;;;11.35;;
35877;SDS011;21982;49.804;24.072;2024-02-28T04:54:43;30.10;;;11.63;;
35877;SDS011;21982;49.804;24.072;2024-02-28T04:57:08;18.65;;;11.15;;
35877;SDS011;21982;49.804;24.072;2024-02-28T04:59:35;40.22;;;12.35;;
35877;SDS011;21982;49.804;24.072;2024-02-28T05:02:01;27.77;;;13.32;;
35877;SDS011;21982;49.804;24.072;2024-02-28T05:04:26;27.67;;;14.57;;
35877;SDS011;21982;49.804;24.072;2024-02-28T05:06:52;23.92;;;12.48;;
35877;SDS011;21982;49.804;24.072;2024-02-28T05:09:17;20.20;;;10.40;;
35877;SDS011;21982;49.804;24.072;2024-02-28T05:11:44;20.00;;;11.75;;
35877;SDS011;21982;49.804;24.072;2024-02-28T05:14:10;22.27;;;10.30;;
35877;SDS011;21982;49.804;24.072;2024-02-28T05:16:36;21.10;;;9.93;;
35877;SDS011;21982;49.804;24.072;2024-02-28T05:19:01;23.42;;;11.20;;
35877;SDS011;21982;49.804;24.072;2024-02-28T05:21:27;22.85;;;11.95;;
35877;SDS011;21982;49.804;24.072;2024-02-28T05:23:53;28.27;;;10.82;;
35877;SDS011;21982;49.804;24.072;2024-02-28T05:26:18;25.20;;;10.23;;
35877;SDS011;21982;49.804;24.072;2024-02-28T05:28:43;20.90;;;11.05;;
35877;SDS011;21982;49.804;24.072;2024-02-28T05:34:04;23.75;;;11.23;;
35877;SDS011;21982;49.804;24.072;2024-02-28T05:36:30;20.42;;;11.40;;
35877;SDS011;21982;49.804;24.072;2024-02-28T05:38:56;20.60;;;9.52;;
35877;SDS011;21982;49.804;24.072;2024-02-28T05:41:23;21.55;;;10.65;;
35877;SDS011;21982;49.804;24.072;2024-02-28T05:43:48;26.52;;;11.38;;
35877;SDS011;21982;49.804;24.072;2024-02-28T05:46:14;23.42;;;11.82;;
35877;SDS011;21982;49.804;24.072;2024-02-28T05:48:41;22.30;;;10.85;;
35877;SDS011;21982;49.804;24.072;2024-02-28T05:51:07;20.33;;;12.43;;
35877;SDS011;21982;49.804;24.072;2024-02-28T05:53:33;21.30;;;10.35;;
35877;SDS011;21982;49.804;24.072;2024-02-28T05:56:04;21.13;;;10.82;;
35877;SDS011;21982;49.804;24.072;2024-02-28T05:58:38;21.83;;;11.77;;
35877;SDS011;21982;49.804;24.072;2024-02-28T06:01:04;22.05;;;12.38;;
35877;SDS011;21982;49.804;24.072;2024-02-28T06:03:29;24.27;;;10.18;;
35877;SDS011;21982;49.804;24.072;2024-02-28T06:05:55;24.90;;;13.23;;
35877;SDS011;21982;49.804;24.072;2024-02-28T06:08:26;24.00;;;11.55;;
35877;SDS011;21982;49.804;24.072;2024-02-28T06:10:51;23.40;;;11.43;;
35877;SDS011;21982;49.804;24.072;2024-02-28T06:13:18;22.75;;;12.40;;
35877;SDS011;21982;49.804;24.072;2024-02-28T06:15:43;21.25;;;12.20;;
35877;SDS011;21982;49.804;24.072;2024-02-28T06:18:09;30.58;;;11.48;;
35877;SDS011;21982;49.804;24.072;2024-02-28T06:20:34;26.95;;;11.77;;
35877;SDS011;21982;49.804;24.072;2024-02-28T06:23:00;23.60;;;10.60;;
35877;SDS011;21982;49.804;24.072;2024-02-28T06:25:25;27.92;;;11.43;;
35877;SDS011;21982;49.804;24.072;2024-02-28T06:27:53;23.45;;;12.02;;
35877;SDS011;21982;49.804;24.072;2024-02-28T06:30:18;25.50;;;11.52;;
35877;SDS011;21982;49.804;24.072;2024-02-28T06:32:44;27.40;;;13.23;;
35877;SDS011;21982;49.804;24.072;2024-02-28T06:35:09;24.48;;;12.07;;
35877;SDS011;21982;49.804;24.072;2024-02-28T06:37:35;21.13;;;11.45;;
35877;SDS011;21982;49.804;24.072;2024-02-28T06:40:02;26.52;;;10.60;;
35877;SDS011;21982;49.804;24.072;2024-02-28T06:42:29;27.20;;;12.65;;
35877;SDS011;21982;49.804;24.072;2024-02-28T06:44:55;21.33;;;12.27;;
35877;SDS011;21982;49.804;24.072;2024-02-28T06:47:20;24.10;;;13.02;;
35877;SDS011;21982;49.804;24.072;2024-02-28T06:49:46;29.85;;;12.98;;
35877;SDS011;21982;49.804;24.072;2024-02-28T06:52:11;26.80;;;12.15;;
35877;SDS011;21982;49.804;24.072;2024-02-28T06:54:37;24.40;;;11.77;;
35877;SDS011;21982;49.804;24.072;2024-02-28T06:57:02;23.25;;;11.07;;
35877;SDS011;21982;49.804;24.072;2024-02-28T06:59:28;20.00;;;12.90;;
35877;SDS011;21982;49.804;24.072;2024-02-28T07:01:53;21.40;;;12.18;;
35877;SDS011;21982;49.804;24.072;2024-02-28T07:04:19;25.75;;;12.20;;
35877;SDS011;21982;49.804;24.072;2024-02-28T07:06:44;26.67;;;12.30;;
35877;SDS011;21982;49.804;24.072;2024-02-28T07:09:11;25.52;;;13.20;;
35877;SDS011;21982;49.804;24.072;2024-02-28T07:11:37;22.42;;;11.95;;
35877;SDS011;21982;49.804;24.072;2024-02-28T07:14:04;25.33;;;11.75;;
35877;SDS011;21982;49.804;24.072;2024-02-28T07:16:30;17.13;;;9.70;;
35877;SDS011;21982;49.804;24.072;2024-02-28T07:18:57;19.55;;;10.40;;
35877;SDS011;21982;49.804;24.072;2024-02-28T07:21:23;23.55;;;11.13;;
35877;SDS011;21982;49.804;24.072;2024-02-28T07:23:48;25.95;;;12.77;;
35877;SDS011;21982;49.804;24.072;2024-02-28T07:26:14;25.70;;;11.75;;
35877;SDS011;21982;49.804;24.072;2024-02-28T07:28:41;27.30;;;14.05;;
35877;SDS011;21982;49.804;24.072;2024-02-28T07:31:14;27.08;;;14.48;;
35877;SDS011;21982;49.804;24.072;2024-02-28T07:33:42;23.50;;;12.57;;
35877;SDS011;21982;49.804;24.072;2024-02-28T07:36:08;26.23;;;13.48;;
35877;SDS011;21982;49.804;24.072;2024-02-28T07:38:35;27.00;;;13.40;;
35877;SDS011;21982;49.804;24.072;2024-02-28T07:41:00;33.00;;;13.85;;
35877;SDS011;21982;49.804;24.072;2024-02-28T07:43:26;26.75;;;14.43;;
35877;SDS011;21982;49.804;24.072;2024-02-28T07:45:52;24.33;;;15.23;;
35877;SDS011;21982;49.804;24.072;2024-02-28T07:48:18;26.15;;;14.50;;
35877;SDS011;21982;49.804;24.072;2024-02-28T07:50:46;19.80;;;11.50;;
35877;SDS011;21982;49.804;24.072;2024-02-28T07:53:14;23.27;;;11.05;;
35877;SDS011;21982;49.804;24.072;2024-02-28T07:55:40;19.75;;;9.88;;
35877;SDS011;21982;49.804;24.072;2024-02-28T07:58:05;21.95;;;11.15;;
35877;SDS011;21982;49.804;24.072;2024-02-28T08:00:38;19.80;;;10.75;;
35877;SDS011;21982;49.804;24.072;2024-02-28T08:03:03;27.40;;;12.02;;
35877;SDS011;21982;49.804;24.072;2024-02-28T08:05:30;23.35;;;10.90;;
35877;SDS011;21982;49.804;24.072;2024-02-28T08:08:00;24.35;;;10.32;;
35877;SDS011;21982;49.804;24.072;2024-02-28T08:10:40;22.50;;;9.77;;
35877;SDS011;21982;49.804;24.072;2024-02-28T08:13:10;19.50;;;9.55;;
35877;SDS011;21982;49.804;24.072;2024-02-28T08:15:35;24.38;;;11.27;;
35877;SDS011;21982;49.804;24.072;2024-02-28T08:18:03;29.02;;;12.57;;
35877;SDS011;21982;49.804;24.072;2024-02-28T08:20:29;22.65;;;10.63;;
35877;SDS011;21982;49.804;24.072;2024-02-28T08:22:54;26.42;;;14.27;;
35877;SDS011;21982;49.804;24.072;2024-02-28T08:25:22;30.98;;;11.60;;
35877;SDS011;21982;49.804;24.072;2024-02-28T08:27:47;23.95;;;11.10;;
35877;SDS011;21982;49.804;24.072;2024-02-28T08:30:13;19.48;;;9.80;;
35877;SDS011;21982;49.804;24.072;2024-02-28T08:32:40;18.25;;;9.70;;
35877;SDS011;21982;49.804;24.072;2024-02-28T08:35:07;18.80;;;10.27;;
35877;SDS011;21982;49.804;24.072;2024-02-28T08:37:33;19.05;;;9.82;;
35877;SDS011;21982;49.804;24.072;2024-02-28T08:39:58;20.85;;;10.52;;
35877;SDS011;21982;49.804;24.072;2024-02-28T08:42:24;16.20;;;9.50;;
35877;SDS011;21982;49.804;24.072;2024-02-28T08:44:50;18.30;;;8.80;;
35877;SDS011;21982;49.804;24.072;2024-02-28T08:47:16;18.95;;;9.88;;
35877;SDS011;21982;49.804;24.072;2024-02-28T08:49:45;18.98;;;8.88;;
35877;SDS011;21982;49.804;24.072;2024-02-28T08:52:10;23.63;;;11.48;;
35877;SDS011;21982;49.804;24.072;2024-02-28T08:54:36;18.73;;;10.35;;
35877;SDS011;21982;49.804;24.072;2024-02-28T08:57:02;24.00;;;10.55;;
35877;SDS011;21982;49.804;24.072;2024-02-28T08:59:28;23.83;;;11.63;;
35877;SDS011;21982;49.804;24.072;2024-02-28T09:01:54;21.08;;;10.43;;
35877;SDS011;21982;49.804;24.072;2024-02-28T09:04:20;23.58;;;12.57;;
35877;SDS011;21982;49.804;24.072;2024-02-28T09:06:46;27.90;;;13.20;;
35877;SDS011;21982;49.804;24.072;2024-02-28T09:09:11;24.65;;;13.45;;
35877;SDS011;21982;49.804;24.072;2024-02-28T09:11:36;24.63;;;12.18;;
35877;SDS011;21982;49.804;24.072;2024-02-28T09:14:02;21.27;;;11.45;;
35877;SDS011;21982;49.804;24.072;2024-02-28T09:16:30;23.48;;;12.15;;
35877;SDS011;21982;49.804;24.072;2024-02-28T09:18:56;27.33;;;14.00;;
35877;SDS011;21982;49.804;24.072;2024-02-28T09:21:21;33.35;;;13.77;;
35877;SDS011;21982;49.804;24.072;2024-02-28T09:23:46;25.13;;;12.70;;
35877;SDS011;21982;49.804;24.072;2024-02-28T09:26:12;24.80;;;12.98;;
35877;SDS011;21982;49.804;24.072;2024-02-28T09:28:38;18.10;;;10.30;;
35877;SDS011;21982;49.804;24.072;2024-02-28T09:31:03;24.92;;;12.82;;
35877;SDS011;21982;49.804;24.072;2024-02-28T09:33:29;29.05;;;11.27;;
35877;SDS011;21982;49.804;24.072;2024-02-28T09:35:54;20.85;;;10.98;;
35877;SDS011;21982;49.804;24.072;2024-02-28T09:38:19;24.10;;;12.43;;
35877;SDS011;21982;49.804;24.072;2024-02-28T09:40:46;25.23;;;11.10;;
35877;SDS011;21982;49.804;24.072;2024-02-28T09:43:17;24.20;;;12.55;;
35877;SDS011;21982;49.804;24.072;2024-02-28T09:45:54;26.83;;;13.23;;
35877;SDS011;21982;49.804;24.072;2024-02-28T09:48:24;27.27;;;13.68;;
35877;SDS011;21982;49.804;24.072;2024-02-28T09:50:53;25.52;;;14.18;;
35877;SDS011;21982;49.804;24.072;2024-02-28T09:53:20;33.20;;;17.33;;
35877;SDS011;21982;49.804;24.072;2024-02-28T09:55:47;26.80;;;14.93;;
35877;SDS011;21982;49.804;24.072;2024-02-28T09:58:13;30.10;;;14.57;;
35877;SDS011;21982;49.804;24.072;2024-02-28T10:00:40;28.50;;;12.82;;
35877;SDS011;21982;49.804;24.072;2024-02-28T10:03:08;20.90;;;10.90;;
35877;SDS011;21982;49.804;24.072;2024-02-28T10:05:36;22.75;;;10.98;;
35877;SDS011;21982;49.804;24.072;2024-02-28T10:08:04;25.10;;;10.75;;
35877;SDS011;21982;49.804;24.072;2024-02-28T10:10:30;31.60;;;11.93;;
35877;SDS011;21982;49.804;24.072;2024-02-28T10:12:56;23.67;;;11.00;;
35877;SDS011;21982;49.804;24.072;2024-02-28T10:15:21;20.00;;;11.23;;
35877;SDS011;21982;49.804;24.072;2024-02-28T10:17:47;24.70;;;11.55;;
35877;SDS011;21982;49.804;24.072;2024-02-28T10:20:13;21.48;;;11.45;;
35877;SDS011;21982;49.804;24.072;2024-02-28T10:22:39;26.63;;;11.50;;
35877;SDS011;21982;49.804;24.072;2024-02-28T10:25:05;19.85;;;10.75;;
35877;SDS011;21982;49.804;24.072;2024-02-28T10:27:34;19.95;;;11.02;;
35877;SDS011;21982;49.804;24.072;2024-02-28T10:30:00;21.33;;;12.48;;
35877;SDS011;21982;49.804;24.072;2024-02-28T10:32:30;23.67;;;10.80;;
35877;SDS011;21982;49.804;24.072;2024-02-28T10:34:56;24.70;;;10.60;;
35877;SDS011;21982;49.804;24.072;2024-02-28T10:37:23;25.08;;;10.63;;
35877;SDS011;21982;49.804;24.072;2024-02-28T10:39:50;21.63;;;10.88;;
35877;SDS011;21982;49.804;24.072;2024-02-28T10:42:18;19.88;;;9.50;;
35877;SDS011;21982;49.804;24.072;2024-02-28T10:44:47;16.20;;;9.43;;
35877;SDS011;21982;49.804;24.072;2024-02-28T10:47:16;17.30;;;10.48;;
35877;SDS011;21982;49.804;24.072;2024-02-28T10:49:45;23.00;;;10.07;;
35877;SDS011;21982;49.804;24.072;2024-02-28T10:52:11;20.90;;;10.20;;
35877;SDS011;21982;49.804;24.072;2024-02-28T10:54:39;19.23;;;9.85;;
35877;SDS011;21982;49.804;24.072;2024-02-28T10:57:10;18.20;;;10.40;;
35877;SDS011;21982;49.804;24.072;2024-02-28T10:59:37;18.50;;;11.60;;
35877;SDS011;21982;49.804;24.072;2024-02-28T11:02:04;21.63;;;10.48;;
35877;SDS011;21982;49.804;24.072;2024-02-28T11:04:34;23.17;;;10.00;;
35877;SDS011;21982;49.804;24.072;2024-02-28T11:07:01;22.85;;;10.02;;
35877;SDS011;21982;49.804;24.072;2024-02-28T11:09:28;22.20;;;10.80;;
35877;SDS011;21982;49.804;24.072;2024-02-28T11:11:55;17.77;;;9.88;;
35877;SDS011;21982;49.804;24.072;2024-02-28T11:14:21;21.55;;;10.32;;
35877;SDS011;21982;49.804;24.072;2024-02-28T11:16:59;19.67;;;8.73;;
35877;SDS011;21982;49.804;24.072;2024-02-28T11:19:29;18.52;;;10.02;;
35877;SDS011;21982;49.804;24.072;2024-02-28T11:21:58;17.67;;;9.50;;
35877;SDS011;21982;49.804;24.072;2024-02-28T11:24:27;17.73;;;7.85;;
35877;SDS011;21982;49.804;24.072;2024-02-28T11:26:55;18.27;;;8.07;;
35877;SDS011;21982;49.804;24.072;2024-02-28T11:29:22;10.13;;;5.88;;
35877;SDS011;21982;49.804;24.072;2024-02-28T11:31:51;13.50;;;6.13;;
35877;SDS011;21982;49.804;24.072;2024-02-28T11:34:17;23.77;;;5.90;;
35877;SDS011;21982;49.804;24.072;2024-02-28T11:36:42;17.67;;;6.07;;
35877;SDS011;21982;49.804;24.072;2024-02-28T11:39:08;14.00;;;6.45;;
35877;SDS011;21982;49.804;24.072;2024-02-28T11:41:38;14.93;;;6.05;;
35877;SDS011;21982;49.804;24.072;2024-02-28T11:44:07;14.23;;;6.13;;
35877;SDS011;21982;49.804;24.072;2024-02-28T11:46:33;18.13;;;7.13;;
35877;SDS011;21982;49.804;24.072;2024-02-28T11:48:58;10.70;;;5.45;;
35877;SDS011;21982;49.804;24.072;2024-02-28T11:51:26;11.85;;;5.55;;
35877;SDS011;21982;49.804;24.072;2024-02-28T11:53:51;12.38;;;5.47;;
35877;SDS011;21982;49.804;24.072;2024-02-28T11:56:17;13.25;;;5.82;;
35877;SDS011;21982;49.804;24.072;2024-02-28T11:58:49;14.38;;;5.35;;
35877;SDS011;21982;49.804;24.072;2024-02-28T12:01:19;13.02;;;5.45;;
35877;SDS011;21982;49.804;24.072;2024-02-28T12:04:05;15.18;;;6.43;;
35877;SDS011;21982;49.804;24.072;2024-02-28T12:06:31;13.57;;;5.93;;
35877;SDS011;21982;49.804;24.072;2024-02-28T12:09:01;11.05;;;5.90;;
35877;SDS011;21982;49.804;24.072;2024-02-28T12:11:28;12.85;;;5.20;;
35877;SDS011;21982;49.804;24.072;2024-02-28T12:13:55;9.88;;;5.57;;
35877;SDS011;21982;49.804;24.072;2024-02-28T12:16:26;13.88;;;6.00;;
35877;SDS011;21982;49.804;24.072;2024-02-28T12:18:52;16.48;;;6.32;;
35877;SDS011;21982;49.804;24.072;2024-02-28T12:21:19;11.95;;;5.22;;
35877;SDS011;21982;49.804;24.072;2024-02-28T12:23:45;12.02;;;5.72;;
35877;SDS011;21982;49.804;24.072;2024-02-28T12:26:11;14.15;;;6.63;;
35877;SDS011;21982;49.804;24.072;2024-02-28T12:28:37;14.95;;;5.30;;
35877;SDS011;21982;49.804;24.072;2024-02-28T12:31:02;11.40;;;6.18;;
35877;SDS011;21982;49.804;24.072;2024-02-28T12:33:30;14.38;;;5.97;;
35877;SDS011;21982;49.804;24.072;2024-02-28T12:35:55;17.45;;;6.38;;
35877;SDS011;21982;49.804;24.072;2024-02-28T12:38:21;9.55;;;5.03;;
35877;SDS011;21982;49.804;24.072;2024-02-28T12:40:47;15.57;;;6.13;;
35877;SDS011;21982;49.804;24.072;2024-02-28T12:43:13;15.68;;;6.18;;
35877;SDS011;21982;49.804;24.072;2024-02-28T12:45:41;17.52;;;5.53;;
35877;SDS011;21982;49.804;24.072;2024-02-28T12:48:07;11.32;;;5.72;;
35877;SDS011;21982;49.804;24.072;2024-02-28T12:50:33;11.05;;;5.45;;
35877;SDS011;21982;49.804;24.072;2024-02-28T12:53:00;33.15;;;7.07;;
35877;SDS011;21982;49.804;24.072;2024-02-28T12:55:26;11.45;;;5.55;;
35877;SDS011;21982;49.804;24.072;2024-02-28T12:57:51;13.02;;;5.78;;
35877;SDS011;21982;49.804;24.072;2024-02-28T13:00:17;13.88;;;5.13;;
35877;SDS011;21982;49.804;24.072;2024-02-28T13:02:43;16.08;;;6.43;;
35877;SDS011;21982;49.804;24.072;2024-02-28T13:05:09;14.30;;;7.38;;
35877;SDS011;21982;49.804;24.072;2024-02-28T13:07:36;12.50;;;5.72;;
35877;SDS011;21982;49.804;24.072;2024-02-28T13:10:01;11.80;;;5.53;;
35877;SDS011;21982;49.804;24.072;2024-02-28T13:12:29;10.15;;;5.57;;
35877;SDS011;21982;49.804;24.072;2024-02-28T13:14:55;13.98;;;6.00;;
35877;SDS011;21982;49.804;24.072;2024-02-28T13:17:21;14.85;;;5.93;;
35877;SDS011;21982;49.804;24.072;2024-02-28T13:19:47;12.45;;;6.53;;
35877;SDS011;21982;49.804;24.072;2024-02-28T13:22:12;11.35;;;5.05;;
35877;SDS011;21982;49.804;24.072;2024-02-28T13:24:39;11.95;;;6.28;;
35877;SDS011;21982;49.804;24.072;2024-02-28T13:27:05;13.38;;;6.43;;
35877;SDS011;21982;49.804;24.072;2024-02-28T13:29:30;12.43;;;6.82;;
35877;SDS011;21982;49.804;24.072;2024-02-28T13:31:57;15.02;;;6.40;;
35877;SDS011;21982;49.804;24.072;2024-02-28T13:34:26;22.90;;;7.22;;
35877;SDS011;21982;49.804;24.072;2024-02-28T13:36:53;16.52;;;6.22;;
35877;SDS011;21982;49.804;24.072;2024-02-28T13:39:18;19.80;;;7.80;;
35877;SDS011;21982;49.804;24.072;2024-02-28T13:41:44;14.18;;;7.22;;
35877;SDS011;21982;49.804;24.072;2024-02-28T13:44:12;14.77;;;6.60;;
35877;SDS011;21982;49.804;24.072;2024-02-28T13:46:39;15.57;;;7.03;;
35877;SDS011;21982;49.804;24.072;2024-02-28T13:49:06;13.30;;;5.93;;
35877;SDS011;21982;49.804;24.072;2024-02-28T13:51:32;15.95;;;7.10;;
35877;SDS011;21982;49.804;24.072;2024-02-28T13:53:58;16.63;;;6.43;;
35877;SDS011;21982;49.804;24.072;2024-02-28T13:56:23;15.82;;;6.93;;
35877;SDS011;21982;49.804;24.072;2024-02-28T13:58:49;12.52;;;6.50;;
35877;SDS011;21982;49.804;24.072;2024-02-28T14:01:15;16.70;;;7.68;;
35877;SDS011;21982;49.804;24.072;2024-02-28T14:03:40;11.77;;;5.82;;
35877;SDS011;21982;49.804;24.072;2024-02-28T14:06:06;13.68;;;6.00;;
35877;SDS011;21982;49.804;24.072;2024-02-28T14:08:31;15.77;;;5.93;;
35877;SDS011;21982;49.804;24.072;2024-02-28T14:10:57;15.55;;;6.75;;
35877;SDS011;21982;49.804;24.072;2024-02-28T14:13:23;19.35;;;6.32;;